sensor_id;sensor_type;location;lat;lon;timestamp;P1;durP1;ratioP1;P2;durP2;ratioP2
27412;SDS011;14871;52.702;5.230;2023-07-09T00:02:14;12.82;;;9.02;;
27412;SDS011;14871;52.702;5.230;2023-07-09T00:04:40;13.15;;;9.43;;
27412;SDS011;14871;52.702;5.230;2023-07-09T00:07:21;13.85;;;9.57;;
27412;SDS011;14871;52.702;5.230;2023-07-09T00:09:56;20.73;;;9.90;;
27412;SDS011;14871;52.702;5.230;2023-07-09T00:12:22;13.63;;;9.55;;
27412;SDS011;14871;52.702;5.230;2023-07-09T00:14:49;12.48;;;9.82;;
27412;SDS011;14871;52.702;5.230;2023-07-09T00:17:31;16.33;;;10.73;;
27412;SDS011;14871;52.702;5.230;2023-07-09T00:20:00;14.13;;;9.82;;
27412;SDS011;14871;52.702;5.230;2023-07-09T00:22:29;13.60;;;9.80;;
27412;SDS011;14871;52.702;5.230;2023-07-09T00:24:55;12.43;;;9.30;;
27412;SDS011;14871;52.702;5.230;2023-07-09T00:27:22;13.18;;;10.07;;
27412;SDS011;14871;52.702;5.230;2023-07-09T00:29:50;13.25;;;9.68;;
27412;SDS011;14871;52.702;5.230;2023-07-09T00:32:18;14.52;;;9.73;;
27412;SDS011;14871;52.702;5.230;2023-07-09T00:34:47;16.25;;;10.27;;
27412;SDS011;14871;52.702;5.230;2023-07-09T00:37:18;12.90;;;10.20;;
27412;SDS011;14871;52.702;5.230;2023-07-09T00:39:46;11.05;;;9.60;;
27412;SDS011;14871;52.702;5.230;2023-07-09T00:42:14;15.05;;;9.77;;
27412;SDS011;14871;52.702;5.230;2023-07-09T00:44:43;16.30;;;9.23;;
27412;SDS011;14871;52.702;5.230;2023-07-09T00:49:49;13.40;;;10.02;;
27412;SDS011;14871;52.702;5.230;2023-07-09T00:54:58;12.20;;;9.70;;
27412;SDS011;14871;52.702;5.230;2023-07-09T00:57:28;13.40;;;9.65;;
27412;SDS011;14871;52.702;5.230;2023-07-09T00:59:56;13.63;;;9.70;;
27412;SDS011;14871;52.702;5.230;2023-07-09T01:02:26;13.02;;;10.23;;
27412;SDS011;14871;52.702;5.230;2023-07-09T01:04:55;11.95;;;9.77;;
27412;SDS011;14871;52.702;5.230;2023-07-09T01:07:25;13.93;;;9.88;;
27412;SDS011;14871;52.702;5.230;2023-07-09T01:09:52;12.63;;;9.73;;
27412;SDS011;14871;52.702;5.230;2023-07-09T01:12:18;15.85;;;9.98;;
27412;SDS011;14871;52.702;5.230;2023-07-09T01:14:45;13.15;;;9.35;;
27412;SDS011;14871;52.702;5.230;2023-07-09T01:17:16;12.57;;;9.68;;
27412;SDS011;14871;52.702;5.230;2023-07-09T01:19:43;13.98;;;10.10;;
27412;SDS011;14871;52.702;5.230;2023-07-09T01:22:14;14.13;;;9.40;;
27412;SDS011;14871;52.702;5.230;2023-07-09T01:24:50;14.13;;;9.57;;
27412;SDS011;14871;52.702;5.230;2023-07-09T01:27:24;13.68;;;9.80;;
27412;SDS011;14871;52.702;5.230;2023-07-09T01:29:52;11.18;;;9.43;;
27412;SDS011;14871;52.702;5.230;2023-07-09T01:32:20;12.73;;;9.85;;
27412;SDS011;14871;52.702;5.230;2023-07-09T01:34:47;16.13;;;10.15;;
27412;SDS011;14871;52.702;5.230;2023-07-09T01:37:17;13.10;;;10.23;;
27412;SDS011;14871;52.702;5.230;2023-07-09T01:39:46;15.00;;;9.43;;
27412;SDS011;14871;52.702;5.230;2023-07-09T01:42:14;13.73;;;9.88;;
27412;SDS011;14871;52.702;5.230;2023-07-09T01:44:42;13.35;;;10.25;;
27412;SDS011;14871;52.702;5.230;2023-07-09T01:47:10;12.05;;;9.40;;
27412;SDS011;14871;52.702;5.230;2023-07-09T01:49:35;13.18;;;10.30;;
27412;SDS011;14871;52.702;5.230;2023-07-09T01:52:02;15.77;;;11.45;;
27412;SDS011;14871;52.702;5.230;2023-07-09T01:54:29;16.08;;;9.68;;
27412;SDS011;14871;52.702;5.230;2023-07-09T01:57:12;14.50;;;9.57;;
27412;SDS011;14871;52.702;5.230;2023-07-09T01:59:39;16.00;;;10.32;;
27412;SDS011;14871;52.702;5.230;2023-07-09T02:02:06;13.40;;;10.60;;
27412;SDS011;14871;52.702;5.230;2023-07-09T02:04:33;13.82;;;10.63;;
27412;SDS011;14871;52.702;5.230;2023-07-09T02:06:58;12.18;;;10.25;;
27412;SDS011;14871;52.702;5.230;2023-07-09T02:09:24;13.50;;;10.60;;
27412;SDS011;14871;52.702;5.230;2023-07-09T02:11:50;14.10;;;10.18;;
27412;SDS011;14871;52.702;5.230;2023-07-09T02:14:15;14.60;;;10.02;;
27412;SDS011;14871;52.702;5.230;2023-07-09T02:16:41;17.02;;;11.25;;
27412;SDS011;14871;52.702;5.230;2023-07-09T02:19:08;13.55;;;10.05;;
27412;SDS011;14871;52.702;5.230;2023-07-09T02:21:34;14.27;;;9.68;;
27412;SDS011;14871;52.702;5.230;2023-07-09T02:23:59;14.10;;;9.95;;
27412;SDS011;14871;52.702;5.230;2023-07-09T02:26:25;15.57;;;10.43;;
27412;SDS011;14871;52.702;5.230;2023-07-09T02:28:50;13.52;;;10.82;;
27412;SDS011;14871;52.702;5.230;2023-07-09T02:31:16;15.10;;;10.40;;
27412;SDS011;14871;52.702;5.230;2023-07-09T02:33:42;14.30;;;11.05;;
27412;SDS011;14871;52.702;5.230;2023-07-09T02:36:07;13.23;;;10.35;;
27412;SDS011;14871;52.702;5.230;2023-07-09T02:38:33;14.15;;;10.73;;
27412;SDS011;14871;52.702;5.230;2023-07-09T02:40:59;14.85;;;10.77;;
27412;SDS011;14871;52.702;5.230;2023-07-09T02:43:24;14.77;;;10.50;;
27412;SDS011;14871;52.702;5.230;2023-07-09T02:45:50;15.23;;;10.57;;
27412;SDS011;14871;52.702;5.230;2023-07-09T02:48:15;14.57;;;10.38;;
27412;SDS011;14871;52.702;5.230;2023-07-09T02:50:41;11.65;;;10.30;;
27412;SDS011;14871;52.702;5.230;2023-07-09T02:53:06;17.00;;;11.35;;
27412;SDS011;14871;52.702;5.230;2023-07-09T02:55:32;16.35;;;11.13;;
27412;SDS011;14871;52.702;5.230;2023-07-09T02:57:59;14.90;;;11.13;;
27412;SDS011;14871;52.702;5.230;2023-07-09T03:00:25;17.58;;;11.00;;
27412;SDS011;14871;52.702;5.230;2023-07-09T03:02:50;14.10;;;10.40;;
27412;SDS011;14871;52.702;5.230;2023-07-09T03:05:16;18.77;;;11.32;;
27412;SDS011;14871;52.702;5.230;2023-07-09T03:07:41;22.50;;;12.05;;
27412;SDS011;14871;52.702;5.230;2023-07-09T03:10:07;14.40;;;11.20;;
27412;SDS011;14871;52.702;5.230;2023-07-09T03:12:33;13.30;;;11.27;;
27412;SDS011;14871;52.702;5.230;2023-07-09T03:14:58;14.60;;;11.05;;
27412;SDS011;14871;52.702;5.230;2023-07-09T03:17:24;13.07;;;10.38;;
27412;SDS011;14871;52.702;5.230;2023-07-09T03:19:50;14.80;;;10.32;;
27412;SDS011;14871;52.702;5.230;2023-07-09T03:22:16;14.93;;;10.88;;
27412;SDS011;14871;52.702;5.230;2023-07-09T03:24:41;13.77;;;10.55;;
27412;SDS011;14871;52.702;5.230;2023-07-09T03:27:08;14.77;;;10.32;;
27412;SDS011;14871;52.702;5.230;2023-07-09T03:29:34;18.20;;;10.90;;
27412;SDS011;14871;52.702;5.230;2023-07-09T03:31:59;14.85;;;11.02;;
27412;SDS011;14871;52.702;5.230;2023-07-09T03:34:25;14.38;;;11.18;;
27412;SDS011;14871;52.702;5.230;2023-07-09T03:36:50;11.70;;;10.20;;
27412;SDS011;14871;52.702;5.230;2023-07-09T03:39:16;17.88;;;10.98;;
27412;SDS011;14871;52.702;5.230;2023-07-09T03:41:42;15.80;;;10.90;;
27412;SDS011;14871;52.702;5.230;2023-07-09T03:44:07;14.73;;;10.70;;
27412;SDS011;14871;52.702;5.230;2023-07-09T03:46:33;15.75;;;10.45;;
27412;SDS011;14871;52.702;5.230;2023-07-09T03:48:59;14.20;;;10.88;;
27412;SDS011;14871;52.702;5.230;2023-07-09T03:51:24;16.17;;;11.65;;
27412;SDS011;14871;52.702;5.230;2023-07-09T03:53:50;16.13;;;11.07;;
27412;SDS011;14871;52.702;5.230;2023-07-09T03:56:16;12.80;;;10.27;;
27412;SDS011;14871;52.702;5.230;2023-07-09T03:58:41;18.05;;;12.23;;
27412;SDS011;14871;52.702;5.230;2023-07-09T04:01:07;18.17;;;12.52;;
27412;SDS011;14871;52.702;5.230;2023-07-09T04:03:33;17.80;;;13.00;;
27412;SDS011;14871;52.702;5.230;2023-07-09T04:05:58;19.02;;;11.88;;
27412;SDS011;14871;52.702;5.230;2023-07-09T04:08:24;17.33;;;12.70;;
27412;SDS011;14871;52.702;5.230;2023-07-09T04:10:52;18.60;;;13.60;;
27412;SDS011;14871;52.702;5.230;2023-07-09T04:13:19;17.52;;;13.18;;
27412;SDS011;14871;52.702;5.230;2023-07-09T04:15:44;19.55;;;13.40;;
27412;SDS011;14871;52.702;5.230;2023-07-09T04:18:10;18.13;;;13.07;;
27412;SDS011;14871;52.702;5.230;2023-07-09T04:20:36;17.80;;;12.82;;
27412;SDS011;14871;52.702;5.230;2023-07-09T04:23:02;16.73;;;13.43;;
27412;SDS011;14871;52.702;5.230;2023-07-09T04:25:27;15.73;;;12.85;;
27412;SDS011;14871;52.702;5.230;2023-07-09T04:27:53;15.95;;;13.07;;
27412;SDS011;14871;52.702;5.230;2023-07-09T04:30:19;19.30;;;12.65;;
27412;SDS011;14871;52.702;5.230;2023-07-09T04:32:45;18.73;;;12.77;;
27412;SDS011;14871;52.702;5.230;2023-07-09T04:35:12;17.67;;;13.73;;
27412;SDS011;14871;52.702;5.230;2023-07-09T04:37:39;18.90;;;12.60;;
27412;SDS011;14871;52.702;5.230;2023-07-09T04:40:05;17.42;;;13.18;;
27412;SDS011;14871;52.702;5.230;2023-07-09T04:42:34;17.27;;;12.63;;
27412;SDS011;14871;52.702;5.230;2023-07-09T04:44:59;21.95;;;13.60;;
27412;SDS011;14871;52.702;5.230;2023-07-09T04:47:25;17.40;;;13.10;;
27412;SDS011;14871;52.702;5.230;2023-07-09T04:49:51;18.77;;;12.77;;
27412;SDS011;14871;52.702;5.230;2023-07-09T04:52:16;15.77;;;12.07;;
27412;SDS011;14871;52.702;5.230;2023-07-09T04:54:42;15.95;;;12.70;;
27412;SDS011;14871;52.702;5.230;2023-07-09T04:57:11;19.92;;;12.93;;
27412;SDS011;14871;52.702;5.230;2023-07-09T04:59:37;16.92;;;12.95;;
27412;SDS011;14871;52.702;5.230;2023-07-09T05:02:03;17.85;;;12.77;;
27412;SDS011;14871;52.702;5.230;2023-07-09T05:04:29;21.13;;;13.00;;
27412;SDS011;14871;52.702;5.230;2023-07-09T05:06:56;19.27;;;12.45;;
27412;SDS011;14871;52.702;5.230;2023-07-09T05:09:22;16.52;;;13.02;;
27412;SDS011;14871;52.702;5.230;2023-07-09T05:11:48;17.73;;;12.90;;
27412;SDS011;14871;52.702;5.230;2023-07-09T05:14:14;16.95;;;12.70;;
27412;SDS011;14871;52.702;5.230;2023-07-09T05:16:40;22.40;;;12.55;;
27412;SDS011;14871;52.702;5.230;2023-07-09T05:19:09;19.23;;;13.48;;
27412;SDS011;14871;52.702;5.230;2023-07-09T05:21:34;17.50;;;13.38;;
27412;SDS011;14871;52.702;5.230;2023-07-09T05:24:00;19.65;;;14.00;;
27412;SDS011;14871;52.702;5.230;2023-07-09T05:26:26;18.65;;;14.35;;
27412;SDS011;14871;52.702;5.230;2023-07-09T05:28:52;22.33;;;13.63;;
27412;SDS011;14871;52.702;5.230;2023-07-09T05:31:18;20.80;;;14.00;;
27412;SDS011;14871;52.702;5.230;2023-07-09T05:33:43;20.55;;;14.07;;
27412;SDS011;14871;52.702;5.230;2023-07-09T05:36:09;18.45;;;14.30;;
27412;SDS011;14871;52.702;5.230;2023-07-09T05:38:41;19.40;;;15.13;;
27412;SDS011;14871;52.702;5.230;2023-07-09T05:41:08;18.85;;;14.65;;
27412;SDS011;14871;52.702;5.230;2023-07-09T05:43:33;19.98;;;15.13;;
27412;SDS011;14871;52.702;5.230;2023-07-09T05:46:00;23.40;;;15.93;;
27412;SDS011;14871;52.702;5.230;2023-07-09T05:48:27;19.98;;;15.88;;
27412;SDS011;14871;52.702;5.230;2023-07-09T05:50:53;26.27;;;18.67;;
27412;SDS011;14871;52.702;5.230;2023-07-09T05:53:22;24.88;;;18.92;;
27412;SDS011;14871;52.702;5.230;2023-07-09T05:55:48;27.27;;;21.48;;
27412;SDS011;14871;52.702;5.230;2023-07-09T05:58:17;27.52;;;19.95;;
27412;SDS011;14871;52.702;5.230;2023-07-09T06:00:42;26.13;;;19.52;;
27412;SDS011;14871;52.702;5.230;2023-07-09T06:03:08;23.85;;;19.10;;
27412;SDS011;14871;52.702;5.230;2023-07-09T06:05:34;27.65;;;20.83;;
27412;SDS011;14871;52.702;5.230;2023-07-09T06:08:00;24.08;;;20.60;;
27412;SDS011;14871;52.702;5.230;2023-07-09T06:10:25;28.67;;;21.05;;
27412;SDS011;14871;52.702;5.230;2023-07-09T06:12:51;29.23;;;22.00;;
27412;SDS011;14871;52.702;5.230;2023-07-09T06:15:18;26.30;;;20.83;;
27412;SDS011;14871;52.702;5.230;2023-07-09T06:17:43;28.58;;;23.83;;
27412;SDS011;14871;52.702;5.230;2023-07-09T06:20:09;30.48;;;24.83;;
27412;SDS011;14871;52.702;5.230;2023-07-09T06:22:35;30.60;;;24.30;;
27412;SDS011;14871;52.702;5.230;2023-07-09T06:25:01;28.15;;;21.70;;
27412;SDS011;14871;52.702;5.230;2023-07-09T06:27:27;30.50;;;24.23;;
27412;SDS011;14871;52.702;5.230;2023-07-09T06:29:52;32.88;;;25.50;;
27412;SDS011;14871;52.702;5.230;2023-07-09T06:32:18;30.55;;;27.27;;
27412;SDS011;14871;52.702;5.230;2023-07-09T06:34:44;35.40;;;30.77;;
27412;SDS011;14871;52.702;5.230;2023-07-09T06:37:09;35.33;;;29.67;;
27412;SDS011;14871;52.702;5.230;2023-07-09T06:39:35;38.65;;;29.48;;
27412;SDS011;14871;52.702;5.230;2023-07-09T06:42:01;32.42;;;28.40;;
27412;SDS011;14871;52.702;5.230;2023-07-09T06:44:26;32.83;;;27.92;;
27412;SDS011;14871;52.702;5.230;2023-07-09T06:46:52;32.88;;;28.60;;
27412;SDS011;14871;52.702;5.230;2023-07-09T06:49:17;31.85;;;28.55;;
27412;SDS011;14871;52.702;5.230;2023-07-09T06:51:43;31.50;;;26.70;;
27412;SDS011;14871;52.702;5.230;2023-07-09T06:54:11;30.95;;;26.73;;
27412;SDS011;14871;52.702;5.230;2023-07-09T06:56:37;30.15;;;26.48;;
27412;SDS011;14871;52.702;5.230;2023-07-09T06:59:03;31.42;;;25.65;;
27412;SDS011;14871;52.702;5.230;2023-07-09T07:01:29;30.10;;;25.25;;
27412;SDS011;14871;52.702;5.230;2023-07-09T07:03:55;28.65;;;25.60;;
27412;SDS011;14871;52.702;5.230;2023-07-09T07:06:20;29.25;;;25.70;;
27412;SDS011;14871;52.702;5.230;2023-07-09T07:08:46;28.13;;;24.80;;
27412;SDS011;14871;52.702;5.230;2023-07-09T07:11:11;31.67;;;24.10;;
27412;SDS011;14871;52.702;5.230;2023-07-09T07:13:38;25.20;;;21.27;;
27412;SDS011;14871;52.702;5.230;2023-07-09T07:16:06;22.90;;;18.75;;
27412;SDS011;14871;52.702;5.230;2023-07-09T07:18:34;20.75;;;18.25;;
27412;SDS011;14871;52.702;5.230;2023-07-09T07:21:00;22.02;;;16.45;;
27412;SDS011;14871;52.702;5.230;2023-07-09T07:23:26;25.70;;;19.23;;
27412;SDS011;14871;52.702;5.230;2023-07-09T07:25:52;24.92;;;17.90;;
27412;SDS011;14871;52.702;5.230;2023-07-09T07:28:19;18.77;;;14.88;;
27412;SDS011;14871;52.702;5.230;2023-07-09T07:30:45;23.27;;;18.05;;
27412;SDS011;14871;52.702;5.230;2023-07-09T07:33:13;17.65;;;14.85;;
27412;SDS011;14871;52.702;5.230;2023-07-09T07:35:39;17.95;;;12.30;;
27412;SDS011;14871;52.702;5.230;2023-07-09T07:38:04;20.25;;;12.98;;
27412;SDS011;14871;52.702;5.230;2023-07-09T07:40:30;15.80;;;12.75;;
27412;SDS011;14871;52.702;5.230;2023-07-09T07:42:55;16.17;;;12.90;;
27412;SDS011;14871;52.702;5.230;2023-07-09T07:45:21;17.65;;;12.30;;
27412;SDS011;14871;52.702;5.230;2023-07-09T07:47:47;11.95;;;10.27;;
27412;SDS011;14871;52.702;5.230;2023-07-09T07:50:13;12.80;;;9.57;;
27412;SDS011;14871;52.702;5.230;2023-07-09T07:52:38;11.73;;;8.05;;
27412;SDS011;14871;52.702;5.230;2023-07-09T07:55:05;15.05;;;6.80;;
27412;SDS011;14871;52.702;5.230;2023-07-09T07:57:31;11.98;;;7.47;;
27412;SDS011;14871;52.702;5.230;2023-07-09T07:59:57;11.00;;;6.78;;
27412;SDS011;14871;52.702;5.230;2023-07-09T08:02:23;13.15;;;7.70;;
27412;SDS011;14871;52.702;5.230;2023-07-09T08:04:49;12.45;;;9.13;;
27412;SDS011;14871;52.702;5.230;2023-07-09T08:07:16;13.93;;;8.85;;
27412;SDS011;14871;52.702;5.230;2023-07-09T08:09:43;11.70;;;8.23;;
27412;SDS011;14871;52.702;5.230;2023-07-09T08:12:09;10.85;;;8.68;;
27412;SDS011;14871;52.702;5.230;2023-07-09T08:14:37;12.98;;;8.48;;
27412;SDS011;14871;52.702;5.230;2023-07-09T08:17:04;16.70;;;8.93;;
27412;SDS011;14871;52.702;5.230;2023-07-09T08:19:30;10.93;;;7.30;;
27412;SDS011;14871;52.702;5.230;2023-07-09T08:21:56;13.15;;;7.80;;
27412;SDS011;14871;52.702;5.230;2023-07-09T08:24:22;11.73;;;8.10;;
27412;SDS011;14871;52.702;5.230;2023-07-09T08:26:47;15.65;;;8.75;;
27412;SDS011;14871;52.702;5.230;2023-07-09T08:29:13;10.75;;;7.43;;
27412;SDS011;14871;52.702;5.230;2023-07-09T08:31:39;10.98;;;7.90;;
27412;SDS011;14871;52.702;5.230;2023-07-09T08:34:06;10.85;;;7.40;;
27412;SDS011;14871;52.702;5.230;2023-07-09T08:36:32;11.77;;;8.50;;
27412;SDS011;14871;52.702;5.230;2023-07-09T08:38:58;10.73;;;8.00;;
27412;SDS011;14871;52.702;5.230;2023-07-09T08:41:37;8.75;;;7.10;;
27412;SDS011;14871;52.702;5.230;2023-07-09T08:55:00;8.40;;;7.45;;
27412;SDS011;14871;52.702;5.230;2023-07-09T08:57:34;11.30;;;7.88;;
27412;SDS011;14871;52.702;5.230;2023-07-09T09:03:09;9.65;;;7.90;;
27412;SDS011;14871;52.702;5.230;2023-07-09T09:05:41;11.70;;;7.63;;
27412;SDS011;14871;52.702;5.230;2023-07-09T09:08:43;14.98;;;8.00;;
27412;SDS011;14871;52.702;5.230;2023-07-09T09:11:13;11.52;;;8.10;;
27412;SDS011;14871;52.702;5.230;2023-07-09T09:13:46;11.50;;;7.43;;
27412;SDS011;14871;52.702;5.230;2023-07-09T09:16:22;9.60;;;6.80;;
27412;SDS011;14871;52.702;5.230;2023-07-09T09:18:52;11.13;;;7.30;;
27412;SDS011;14871;52.702;5.230;2023-07-09T09:21:26;12.43;;;8.43;;
27412;SDS011;14871;52.702;5.230;2023-07-09T09:23:58;9.55;;;7.43;;
27412;SDS011;14871;52.702;5.230;2023-07-09T09:26:32;12.20;;;7.70;;
27412;SDS011;14871;52.702;5.230;2023-07-09T09:29:00;14.65;;;7.13;;
27412;SDS011;14871;52.702;5.230;2023-07-09T09:31:34;10.57;;;7.82;;
27412;SDS011;14871;52.702;5.230;2023-07-09T09:34:00;7.82;;;6.32;;
27412;SDS011;14871;52.702;5.230;2023-07-09T09:36:26;8.43;;;6.28;;
27412;SDS011;14871;52.702;5.230;2023-07-09T09:38:52;6.93;;;5.90;;
27412;SDS011;14871;52.702;5.230;2023-07-09T09:43:46;9.38;;;5.65;;
27412;SDS011;14871;52.702;5.230;2023-07-09T09:46:16;6.80;;;5.20;;
27412;SDS011;14871;52.702;5.230;2023-07-09T09:48:51;7.22;;;5.38;;
27412;SDS011;14871;52.702;5.230;2023-07-09T09:51:19;7.65;;;4.88;;
27412;SDS011;14871;52.702;5.230;2023-07-09T09:53:49;6.93;;;5.10;;
27412;SDS011;14871;52.702;5.230;2023-07-09T09:56:38;7.30;;;5.00;;
27412;SDS011;14871;52.702;5.230;2023-07-09T09:59:04;7.68;;;5.25;;
27412;SDS011;14871;52.702;5.230;2023-07-09T10:01:31;8.05;;;5.63;;
27412;SDS011;14871;52.702;5.230;2023-07-09T10:04:00;8.75;;;5.07;;
27412;SDS011;14871;52.702;5.230;2023-07-09T10:06:43;7.88;;;5.00;;
27412;SDS011;14871;52.702;5.230;2023-07-09T10:09:18;6.13;;;4.82;;
27412;SDS011;14871;52.702;5.230;2023-07-09T10:11:57;6.78;;;5.20;;
27412;SDS011;14871;52.702;5.230;2023-07-09T10:14:26;6.50;;;5.50;;
27412;SDS011;14871;52.702;5.230;2023-07-09T10:17:05;10.75;;;5.22;;
27412;SDS011;14871;52.702;5.230;2023-07-09T10:20:00;9.35;;;5.60;;
27412;SDS011;14871;52.702;5.230;2023-07-09T10:22:40;7.50;;;5.35;;
27412;SDS011;14871;52.702;5.230;2023-07-09T10:31:06;9.57;;;5.47;;
27412;SDS011;14871;52.702;5.230;2023-07-09T10:39:25;7.15;;;4.45;;
27412;SDS011;14871;52.702;5.230;2023-07-09T10:41:57;7.93;;;3.85;;
27412;SDS011;14871;52.702;5.230;2023-07-09T10:44:28;6.13;;;3.60;;
27412;SDS011;14871;52.702;5.230;2023-07-09T10:46:59;5.22;;;3.47;;
27412;SDS011;14871;52.702;5.230;2023-07-09T10:49:32;6.18;;;3.60;;
27412;SDS011;14871;52.702;5.230;2023-07-09T10:52:22;4.82;;;3.20;;
27412;SDS011;14871;52.702;5.230;2023-07-09T10:57:25;8.05;;;3.83;;
27412;SDS011;14871;52.702;5.230;2023-07-09T10:59:55;4.20;;;3.47;;
27412;SDS011;14871;52.702;5.230;2023-07-09T11:02:24;5.28;;;3.65;;
27412;SDS011;14871;52.702;5.230;2023-07-09T11:10:10;5.70;;;2.95;;
27412;SDS011;14871;52.702;5.230;2023-07-09T11:12:42;6.30;;;3.50;;
27412;SDS011;14871;52.702;5.230;2023-07-09T11:15:22;4.72;;;2.92;;
27412;SDS011;14871;52.702;5.230;2023-07-09T11:17:52;4.93;;;3.00;;
27412;SDS011;14871;52.702;5.230;2023-07-09T11:20:25;8.45;;;3.67;;
27412;SDS011;14871;52.702;5.230;2023-07-09T11:28:33;4.18;;;3.25;;
27412;SDS011;14871;52.702;5.230;2023-07-09T11:31:04;5.82;;;3.13;;
27412;SDS011;14871;52.702;5.230;2023-07-09T11:33:31;4.70;;;3.20;;
27412;SDS011;14871;52.702;5.230;2023-07-09T11:36:11;4.55;;;3.38;;
27412;SDS011;14871;52.702;5.230;2023-07-09T11:38:44;5.90;;;3.20;;
27412;SDS011;14871;52.702;5.230;2023-07-09T11:41:22;6.20;;;3.45;;
27412;SDS011;14871;52.702;5.230;2023-07-09T11:44:12;6.25;;;3.22;;
27412;SDS011;14871;52.702;5.230;2023-07-09T11:46:40;3.77;;;3.37;;
27412;SDS011;14871;52.702;5.230;2023-07-09T11:49:19;4.15;;;3.08;;
27412;SDS011;14871;52.702;5.230;2023-07-09T11:51:50;3.42;;;3.10;;
27412;SDS011;14871;52.702;5.230;2023-07-09T11:54:20;4.57;;;2.83;;
27412;SDS011;14871;52.702;5.230;2023-07-09T11:56:59;5.38;;;3.15;;
27412;SDS011;14871;52.702;5.230;2023-07-09T11:59:28;4.18;;;3.13;;
27412;SDS011;14871;52.702;5.230;2023-07-09T12:01:54;5.85;;;3.30;;
27412;SDS011;14871;52.702;5.230;2023-07-09T12:04:29;5.53;;;3.55;;
27412;SDS011;14871;52.702;5.230;2023-07-09T12:06:59;13.55;;;4.07;;
27412;SDS011;14871;52.702;5.230;2023-07-09T12:09:29;15.98;;;3.85;;
27412;SDS011;14871;52.702;5.230;2023-07-09T12:11:57;8.40;;;3.92;;
27412;SDS011;14871;52.702;5.230;2023-07-09T12:14:23;7.43;;;3.90;;
27412;SDS011;14871;52.702;5.230;2023-07-09T12:16:52;8.10;;;4.00;;
27412;SDS011;14871;52.702;5.230;2023-07-09T12:19:19;6.50;;;3.90;;
27412;SDS011;14871;52.702;5.230;2023-07-09T12:21:48;11.10;;;3.78;;
27412;SDS011;14871;52.702;5.230;2023-07-09T12:24:20;5.95;;;3.70;;
27412;SDS011;14871;52.702;5.230;2023-07-09T12:26:51;7.20;;;4.10;;
27412;SDS011;14871;52.702;5.230;2023-07-09T12:29:30;7.00;;;3.78;;
27412;SDS011;14871;52.702;5.230;2023-07-09T12:32:06;5.03;;;4.15;;
27412;SDS011;14871;52.702;5.230;2023-07-09T12:34:38;6.30;;;4.20;;
27412;SDS011;14871;52.702;5.230;2023-07-09T12:37:03;8.65;;;4.78;;
27412;SDS011;14871;52.702;5.230;2023-07-09T12:39:31;5.80;;;4.57;;
27412;SDS011;14871;52.702;5.230;2023-07-09T12:42:02;9.85;;;4.50;;
27412;SDS011;14871;52.702;5.230;2023-07-09T12:44:30;7.40;;;4.38;;
27412;SDS011;14871;52.702;5.230;2023-07-09T12:46:58;6.97;;;4.28;;
27412;SDS011;14871;52.702;5.230;2023-07-09T12:49:26;9.32;;;4.30;;
27412;SDS011;14871;52.702;5.230;2023-07-09T12:52:44;8.35;;;4.03;;
27412;SDS011;14871;52.702;5.230;2023-07-09T12:54:55;5.30;;;3.80;;
27412;SDS011;14871;52.702;5.230;2023-07-09T12:57:26;6.55;;;4.05;;
27412;SDS011;14871;52.702;5.230;2023-07-09T12:59:53;6.57;;;4.05;;
27412;SDS011;14871;52.702;5.230;2023-07-09T13:02:27;8.13;;;3.95;;
27412;SDS011;14871;52.702;5.230;2023-07-09T13:05:00;6.30;;;3.55;;
27412;SDS011;14871;52.702;5.230;2023-07-09T13:07:41;4.05;;;2.92;;
27412;SDS011;14871;52.702;5.230;2023-07-09T13:10:17;5.22;;;3.13;;
27412;SDS011;14871;52.702;5.230;2023-07-09T13:12:49;5.65;;;3.22;;
27412;SDS011;14871;52.702;5.230;2023-07-09T13:15:31;6.22;;;3.63;;
27412;SDS011;14871;52.702;5.230;2023-07-09T13:18:09;4.45;;;3.50;;
27412;SDS011;14871;52.702;5.230;2023-07-09T13:20:38;4.80;;;3.60;;
27412;SDS011;14871;52.702;5.230;2023-07-09T13:23:26;5.28;;;3.50;;
27412;SDS011;14871;52.702;5.230;2023-07-09T13:25:52;7.70;;;3.53;;
27412;SDS011;14871;52.702;5.230;2023-07-09T13:28:28;9.15;;;4.30;;
27412;SDS011;14871;52.702;5.230;2023-07-09T13:33:33;7.38;;;3.15;;
27412;SDS011;14871;52.702;5.230;2023-07-09T13:35:59;8.43;;;3.13;;
27412;SDS011;14871;52.702;5.230;2023-07-09T13:38:25;9.27;;;3.72;;
27412;SDS011;14871;52.702;5.230;2023-07-09T13:40:53;7.40;;;3.63;;
27412;SDS011;14871;52.702;5.230;2023-07-09T13:45:56;9.70;;;4.03;;
27412;SDS011;14871;52.702;5.230;2023-07-09T13:48:23;10.55;;;3.83;;
27412;SDS011;14871;52.702;5.230;2023-07-09T13:50:51;13.15;;;4.50;;
27412;SDS011;14871;52.702;5.230;2023-07-09T13:53:20;11.63;;;4.35;;
27412;SDS011;14871;52.702;5.230;2023-07-09T13:55:48;12.68;;;4.68;;
27412;SDS011;14871;52.702;5.230;2023-07-09T13:58:17;13.85;;;4.97;;
27412;SDS011;14871;52.702;5.230;2023-07-09T14:00:44;14.00;;;5.25;;
27412;SDS011;14871;52.702;5.230;2023-07-09T14:05:45;16.58;;;5.32;;
27412;SDS011;14871;52.702;5.230;2023-07-09T14:08:12;11.05;;;4.93;;
27412;SDS011;14871;52.702;5.230;2023-07-09T14:10:38;12.23;;;4.38;;
27412;SDS011;14871;52.702;5.230;2023-07-09T14:13:04;9.75;;;4.55;;
27412;SDS011;14871;52.702;5.230;2023-07-09T14:15:30;10.88;;;5.65;;
27412;SDS011;14871;52.702;5.230;2023-07-09T14:17:56;16.20;;;5.65;;
27412;SDS011;14871;52.702;5.230;2023-07-09T14:20:21;14.52;;;7.03;;
27412;SDS011;14871;52.702;5.230;2023-07-09T14:22:48;16.58;;;8.63;;
27412;SDS011;14871;52.702;5.230;2023-07-09T14:25:22;13.48;;;8.30;;
27412;SDS011;14871;52.702;5.230;2023-07-09T14:27:50;15.02;;;8.30;;
27412;SDS011;14871;52.702;5.230;2023-07-09T14:30:19;14.88;;;10.45;;
27412;SDS011;14871;52.702;5.230;2023-07-09T14:32:47;15.57;;;9.95;;
27412;SDS011;14871;52.702;5.230;2023-07-09T14:35:15;18.35;;;10.85;;
27412;SDS011;14871;52.702;5.230;2023-07-09T14:37:45;15.05;;;10.30;;
27412;SDS011;14871;52.702;5.230;2023-07-09T14:40:13;17.55;;;10.77;;
27412;SDS011;14871;52.702;5.230;2023-07-09T14:42:40;21.13;;;11.82;;
27412;SDS011;14871;52.702;5.230;2023-07-09T14:45:25;17.35;;;10.85;;
27412;SDS011;14871;52.702;5.230;2023-07-09T14:47:57;20.95;;;11.18;;
27412;SDS011;14871;52.702;5.230;2023-07-09T14:50:23;17.98;;;11.10;;
27412;SDS011;14871;52.702;5.230;2023-07-09T14:52:50;21.15;;;10.68;;
27412;SDS011;14871;52.702;5.230;2023-07-09T14:55:19;18.88;;;11.27;;
27412;SDS011;14871;52.702;5.230;2023-07-09T14:57:47;21.83;;;11.40;;
27412;SDS011;14871;52.702;5.230;2023-07-09T15:00:14;19.85;;;10.65;;
27412;SDS011;14871;52.702;5.230;2023-07-09T15:02:42;19.20;;;10.75;;
27412;SDS011;14871;52.702;5.230;2023-07-09T15:05:13;17.55;;;10.35;;
27412;SDS011;14871;52.702;5.230;2023-07-09T15:07:44;18.77;;;10.73;;
27412;SDS011;14871;52.702;5.230;2023-07-09T15:10:14;18.55;;;11.20;;
27412;SDS011;14871;52.702;5.230;2023-07-09T15:12:43;21.80;;;12.10;;
27412;SDS011;14871;52.702;5.230;2023-07-09T15:15:15;21.48;;;14.00;;
27412;SDS011;14871;52.702;5.230;2023-07-09T15:17:55;22.83;;;13.52;;
27412;SDS011;14871;52.702;5.230;2023-07-09T15:20:22;22.77;;;12.63;;
27412;SDS011;14871;52.702;5.230;2023-07-09T15:22:50;22.52;;;12.65;;
27412;SDS011;14871;52.702;5.230;2023-07-09T15:25:21;19.15;;;12.60;;
27412;SDS011;14871;52.702;5.230;2023-07-09T15:27:49;19.45;;;12.65;;
27412;SDS011;14871;52.702;5.230;2023-07-09T15:30:17;18.90;;;10.50;;
27412;SDS011;14871;52.702;5.230;2023-07-09T15:32:45;17.00;;;11.18;;
27412;SDS011;14871;52.702;5.230;2023-07-09T15:35:12;17.00;;;9.88;;